sensor_id;sensor_type;location;lat;lon;timestamp;temperature;humidity
11221;DHT22;8517;53.546;10.104;2023-05-01T00:00:22;10.80;99.90
11221;DHT22;8517;53.546;10.104;2023-05-01T00:02:49;10.80;99.90
11221;DHT22;8517;53.546;10.104;2023-05-01T00:05:18;10.80;99.90
11221;DHT22;8517;53.546;10.104;2023-05-01T00:07:45;10.80;99.90
11221;DHT22;8517;53.546;10.104;2023-05-01T00:10:12;10.70;99.90
11221;DHT22;8517;53.546;10.104;2023-05-01T00:12:38;10.70;99.90
11221;DHT22;8517;53.546;10.104;2023-05-01T00:15:06;10.70;99.90
11221;DHT22;8517;53.546;10.104;2023-05-01T00:17:33;10.70;99.90
11221;DHT22;8517;53.546;10.104;2023-05-01T00:20:00;10.70;99.90
11221;DHT22;8517;53.546;10.104;2023-05-01T00:22:29;10.60;99.90
11221;DHT22;8517;53.546;10.104;2023-05-01T00:24:56;10.60;99.90
11221;DHT22;8517;53.546;10.104;2023-05-01T00:27:23;10.60;99.90
11221;DHT22;8517;53.546;10.104;2023-05-01T00:29:50;10.50;99.90
11221;DHT22;8517;53.546;10.104;2023-05-01T00:32:16;10.50;99.90
11221;DHT22;8517;53.546;10.104;2023-05-01T00:34:43;10.50;99.90
11221;DHT22;8517;53.546;10.104;2023-05-01T00:37:12;10.40;99.90
11221;DHT22;8517;53.546;10.104;2023-05-01T00:39:40;10.40;99.90
11221;DHT22;8517;53.546;10.104;2023-05-01T00:42:07;10.40;99.90
11221;DHT22;8517;53.546;10.104;2023-05-01T00:44:34;10.30;99.90
11221;DHT22;8517;53.546;10.104;2023-05-01T00:47:00;10.30;99.90
11221;DHT22;8517;53.546;10.104;2023-05-01T00:49:28;10.30;99.90
11221;DHT22;8517;53.546;10.104;2023-05-01T00:51:55;10.30;99.90
11221;DHT22;8517;53.546;10.104;2023-05-01T00:54:23;10.30;99.90
11221;DHT22;8517;53.546;10.104;2023-05-01T00:56:53;10.20;99.90
11221;DHT22;8517;53.546;10.104;2023-05-01T00:59:20;10.20;99.90
11221;DHT22;8517;53.546;10.104;2023-05-01T01:01:47;10.20;99.90
11221;DHT22;8517;53.546;10.104;2023-05-01T01:04:14;10.20;99.90
11221;DHT22;8517;53.546;10.104;2023-05-01T01:06:48;10.10;99.90
11221;DHT22;8517;53.546;10.104;2023-05-01T01:09:26;10.10;99.90
11221;DHT22;8517;53.546;10.104;2023-05-01T01:12:05;10.10;99.90
11221;DHT22;8517;53.546;10.104;2023-05-01T01:14:39;10.10;99.90
11221;DHT22;8517;53.546;10.104;2023-05-01T01:17:12;10.10;99.90
11221;DHT22;8517;53.546;10.104;2023-05-01T01:22:57;10.10;99.90
11221;DHT22;8517;53.546;10.104;2023-05-01T01:25:54;10.00;99.90
11221;DHT22;8517;53.546;10.104;2023-05-01T01:28:50;10.00;99.90
11221;DHT22;8517;53.546;10.104;2023-05-01T01:31:29;10.00;99.90
11221;DHT22;8517;53.546;10.104;2023-05-01T01:34:12;10.00;99.90
11221;DHT22;8517;53.546;10.104;2023-05-01T01:36:47;10.00;99.90
11221;DHT22;8517;53.546;10.104;2023-05-01T01:39:24;10.00;99.90
11221;DHT22;8517;53.546;10.104;2023-05-01T01:41:53;10.00;99.90
11221;DHT22;8517;53.546;10.104;2023-05-01T01:44:29;9.90;99.90
11221;DHT22;8517;53.546;10.104;2023-05-01T01:47:01;9.90;99.90
11221;DHT22;8517;53.546;10.104;2023-05-01T01:49:32;9.90;99.90
11221;DHT22;8517;53.546;10.104;2023-05-01T01:52:01;9.80;99.90
11221;DHT22;8517;53.546;10.104;2023-05-01T01:54:33;9.80;99.90
11221;DHT22;8517;53.546;10.104;2023-05-01T01:57:01;9.80;99.90
11221;DHT22;8517;53.546;10.104;2023-05-01T01:59:31;9.80;99.90
11221;DHT22;8517;53.546;10.104;2023-05-01T02:02:00;9.70;99.90
11221;DHT22;8517;53.546;10.104;2023-05-01T02:04:28;9.70;99.90
11221;DHT22;8517;53.546;10.104;2023-05-01T02:06:57;9.70;99.90
11221;DHT22;8517;53.546;10.104;2023-05-01T02:09:27;9.70;99.90
11221;DHT22;8517;53.546;10.104;2023-05-01T02:11:55;9.70;99.90
11221;DHT22;8517;53.546;10.104;2023-05-01T02:14:25;9.60;99.90
11221;DHT22;8517;53.546;10.104;2023-05-01T02:16:53;9.60;99.90
11221;DHT22;8517;53.546;10.104;2023-05-01T02:19:21;9.60;99.90
11221;DHT22;8517;53.546;10.104;2023-05-01T02:21:49;9.60;99.90
11221;DHT22;8517;53.546;10.104;2023-05-01T02:24:21;9.60;99.90
11221;DHT22;8517;53.546;10.104;2023-05-01T02:26:53;9.60;99.90
11221;DHT22;8517;53.546;10.104;2023-05-01T02:29:20;9.50;99.90
11221;DHT22;8517;53.546;10.104;2023-05-01T02:31:47;9.50;99.90
11221;DHT22;8517;53.546;10.104;2023-05-01T02:34:14;9.50;99.90
11221;DHT22;8517;53.546;10.104;2023-05-01T02:36:41;9.50;99.90
11221;DHT22;8517;53.546;10.104;2023-05-01T02:39:08;9.50;99.90
11221;DHT22;8517;53.546;10.104;2023-05-01T02:41:38;9.40;99.90
11221;DHT22;8517;53.546;10.104;2023-05-01T02:44:08;9.50;99.90
11221;DHT22;8517;53.546;10.104;2023-05-01T02:46:36;9.40;99.90
11221;DHT22;8517;53.546;10.104;2023-05-01T02:49:04;9.40;99.90
11221;DHT22;8517;53.546;10.104;2023-05-01T02:51:32;9.40;99.90
11221;DHT22;8517;53.546;10.104;2023-05-01T02:54:00;9.40;99.90
11221;DHT22;8517;53.546;10.104;2023-05-01T02:56:27;9.40;99.90
11221;DHT22;8517;53.546;10.104;2023-05-01T02:58:56;9.30;99.90
11221;DHT22;8517;53.546;10.104;2023-05-01T03:01:22;9.30;99.90
11221;DHT22;8517;53.546;10.104;2023-05-01T03:03:49;9.30;99.90
11221;DHT22;8517;53.546;10.104;2023-05-01T03:06:16;9.30;99.90
11221;DHT22;8517;53.546;10.104;2023-05-01T03:08:43;9.30;99.90
11221;DHT22;8517;53.546;10.104;2023-05-01T03:11:12;9.20;99.90
11221;DHT22;8517;53.546;10.104;2023-05-01T03:13:39;9.20;99.90
11221;DHT22;8517;53.546;10.104;2023-05-01T03:16:07;9.20;99.90
11221;DHT22;8517;53.546;10.104;2023-05-01T03:18:34;9.20;99.90
11221;DHT22;8517;53.546;10.104;2023-05-01T03:21:00;9.20;99.90
11221;DHT22;8517;53.546;10.104;2023-05-01T03:23:28;9.20;99.90
11221;DHT22;8517;53.546;10.104;2023-05-01T03:25:55;9.20;99.90
11221;DHT22;8517;53.546;10.104;2023-05-01T03:28:22;9.10;99.90
11221;DHT22;8517;53.546;10.104;2023-05-01T03:30:49;9.10;99.90
11221;DHT22;8517;53.546;10.104;2023-05-01T03:33:17;9.10;99.90
11221;DHT22;8517;53.546;10.104;2023-05-01T03:35:44;9.10;99.90
11221;DHT22;8517;53.546;10.104;2023-05-01T03:38:11;9.10;99.90
11221;DHT22;8517;53.546;10.104;2023-05-01T03:40:39;9.10;99.90
11221;DHT22;8517;53.546;10.104;2023-05-01T03:43:05;9.00;99.90
11221;DHT22;8517;53.546;10.104;2023-05-01T03:45:32;9.00;99.90
11221;DHT22;8517;53.546;10.104;2023-05-01T03:47:59;9.00;99.90
11221;DHT22;8517;53.546;10.104;2023-05-01T03:50:27;9.00;99.90
11221;DHT22;8517;53.546;10.104;2023-05-01T03:52:54;9.00;99.90
11221;DHT22;8517;53.546;10.104;2023-05-01T03:55:22;9.00;99.90
11221;DHT22;8517;53.546;10.104;2023-05-01T03:57:48;9.00;99.90
11221;DHT22;8517;53.546;10.104;2023-05-01T04:00:17;9.00;99.90
11221;DHT22;8517;53.546;10.104;2023-05-01T04:02:44;9.00;99.90
11221;DHT22;8517;53.546;10.104;2023-05-01T04:05:11;9.00;99.90
11221;DHT22;8517;53.546;10.104;2023-05-01T04:07:39;8.90;99.90
11221;DHT22;8517;53.546;10.104;2023-05-01T04:10:06;9.00;99.90
11221;DHT22;8517;53.546;10.104;2023-05-01T04:12:34;9.00;99.90
11221;DHT22;8517;53.546;10.104;2023-05-01T04:15:01;9.00;99.90
11221;DHT22;8517;53.546;10.104;2023-05-01T04:17:28;9.00;99.90
11221;DHT22;8517;53.546;10.104;2023-05-01T04:19:55;9.10;99.90
11221;DHT22;8517;53.546;10.104;2023-05-01T04:22:21;9.10;99.90
11221;DHT22;8517;53.546;10.104;2023-05-01T04:24:50;9.10;99.90
11221;DHT22;8517;53.546;10.104;2023-05-01T04:27:17;9.20;99.90
11221;DHT22;8517;53.546;10.104;2023-05-01T04:29:44;9.20;99.90
11221;DHT22;8517;53.546;10.104;2023-05-01T04:32:11;9.30;99.90
11221;DHT22;8517;53.546;10.104;2023-05-01T04:34:38;9.30;99.90
11221;DHT22;8517;53.546;10.104;2023-05-01T04:37:04;9.40;99.90
11221;DHT22;8517;53.546;10.104;2023-05-01T04:39:33;9.40;99.90
11221;DHT22;8517;53.546;10.104;2023-05-01T04:42:02;9.50;99.90
11221;DHT22;8517;53.546;10.104;2023-05-01T04:44:29;9.50;99.90
11221;DHT22;8517;53.546;10.104;2023-05-01T04:46:58;9.50;99.90
11221;DHT22;8517;53.546;10.104;2023-05-01T04:49:26;9.60;99.90
11221;DHT22;8517;53.546;10.104;2023-05-01T04:51:53;9.70;99.90
11221;DHT22;8517;53.546;10.104;2023-05-01T04:54:20;9.80;99.90
11221;DHT22;8517;53.546;10.104;2023-05-01T04:56:47;9.90;99.90
11221;DHT22;8517;53.546;10.104;2023-05-01T04:59:15;10.00;99.90
11221;DHT22;8517;53.546;10.104;2023-05-01T05:01:42;10.20;99.90
11221;DHT22;8517;53.546;10.104;2023-05-01T05:04:09;10.40;99.90
11221;DHT22;8517;53.546;10.104;2023-05-01T05:06:35;10.50;99.90
11221;DHT22;8517;53.546;10.104;2023-05-01T05:09:02;10.70;99.90
11221;DHT22;8517;53.546;10.104;2023-05-01T05:11:29;11.00;99.90
11221;DHT22;8517;53.546;10.104;2023-05-01T05:13:56;11.20;99.90
11221;DHT22;8517;53.546;10.104;2023-05-01T05:16:24;11.40;99.90
11221;DHT22;8517;53.546;10.104;2023-05-01T05:18:51;11.70;99.90
11221;DHT22;8517;53.546;10.104;2023-05-01T05:21:20;11.80;99.90
11221;DHT22;8517;53.546;10.104;2023-05-01T05:23:47;12.00;99.90
11221;DHT22;8517;53.546;10.104;2023-05-01T05:26:14;12.20;99.90
11221;DHT22;8517;53.546;10.104;2023-05-01T05:28:40;12.40;99.90
11221;DHT22;8517;53.546;10.104;2023-05-01T05:31:07;12.60;99.90
11221;DHT22;8517;53.546;10.104;2023-05-01T05:33:36;12.70;99.90
11221;DHT22;8517;53.546;10.104;2023-05-01T05:36:03;12.90;99.90
11221;DHT22;8517;53.546;10.104;2023-05-01T05:38:30;13.10;99.90
11221;DHT22;8517;53.546;10.104;2023-05-01T05:40:57;13.30;99.90
11221;DHT22;8517;53.546;10.104;2023-05-01T05:43:25;13.60;99.90
11221;DHT22;8517;53.546;10.104;2023-05-01T05:45:55;13.80;99.90
11221;DHT22;8517;53.546;10.104;2023-05-01T05:48:22;14.10;99.90
11221;DHT22;8517;53.546;10.104;2023-05-01T05:50:50;14.20;99.90
11221;DHT22;8517;53.546;10.104;2023-05-01T05:53:17;14.40;99.90
11221;DHT22;8517;53.546;10.104;2023-05-01T05:55:46;14.60;99.90
11221;DHT22;8517;53.546;10.104;2023-05-01T05:58:13;14.90;99.90
11221;DHT22;8517;53.546;10.104;2023-05-01T06:00:45;15.20;99.90
11221;DHT22;8517;53.546;10.104;2023-05-01T06:05:39;15.80;99.90
11221;DHT22;8517;53.546;10.104;2023-05-01T06:08:07;16.10;99.90
11221;DHT22;8517;53.546;10.104;2023-05-01T06:10:36;16.30;99.90
11221;DHT22;8517;53.546;10.104;2023-05-01T06:13:04;16.60;99.90
11221;DHT22;8517;53.546;10.104;2023-05-01T06:15:31;16.90;99.90
11221;DHT22;8517;53.546;10.104;2023-05-01T06:17:58;17.20;99.90
11221;DHT22;8517;53.546;10.104;2023-05-01T06:20:26;17.50;99.90
11221;DHT22;8517;53.546;10.104;2023-05-01T06:22:52;17.90;99.90
11221;DHT22;8517;53.546;10.104;2023-05-01T06:25:21;18.20;99.90
11221;DHT22;8517;53.546;10.104;2023-05-01T06:27:48;18.50;99.90
11221;DHT22;8517;53.546;10.104;2023-05-01T06:30:15;18.80;99.90
11221;DHT22;8517;53.546;10.104;2023-05-01T06:32:44;19.10;99.90
11221;DHT22;8517;53.546;10.104;2023-05-01T06:35:11;19.30;99.90
11221;DHT22;8517;53.546;10.104;2023-05-01T06:37:38;19.50;99.90
11221;DHT22;8517;53.546;10.104;2023-05-01T06:40:08;19.60;99.90
11221;DHT22;8517;53.546;10.104;2023-05-01T06:42:38;19.80;99.90
11221;DHT22;8517;53.546;10.104;2023-05-01T06:45:06;19.90;99.90
11221;DHT22;8517;53.546;10.104;2023-05-01T06:47:33;19.90;99.90
11221;DHT22;8517;53.546;10.104;2023-05-01T06:50:00;20.00;99.90
11221;DHT22;8517;53.546;10.104;2023-05-01T06:52:27;20.10;99.90
11221;DHT22;8517;53.546;10.104;2023-05-01T06:54:53;20.10;99.90
11221;DHT22;8517;53.546;10.104;2023-05-01T06:57:20;20.10;99.90
11221;DHT22;8517;53.546;10.104;2023-05-01T06:59:48;20.10;99.90
11221;DHT22;8517;53.546;10.104;2023-05-01T07:02:15;20.20;99.90
11221;DHT22;8517;53.546;10.104;2023-05-01T07:04:43;20.40;99.90
11221;DHT22;8517;53.546;10.104;2023-05-01T07:07:10;20.60;99.90
11221;DHT22;8517;53.546;10.104;2023-05-01T07:09:38;20.80;99.90
11221;DHT22;8517;53.546;10.104;2023-05-01T07:12:05;20.90;99.90
11221;DHT22;8517;53.546;10.104;2023-05-01T07:14:33;21.00;99.90
11221;DHT22;8517;53.546;10.104;2023-05-01T07:17:01;21.20;99.90
11221;DHT22;8517;53.546;10.104;2023-05-01T07:19:28;21.40;99.90
11221;DHT22;8517;53.546;10.104;2023-05-01T07:21:55;21.60;99.90
11221;DHT22;8517;53.546;10.104;2023-05-01T07:24:22;21.80;99.90
11221;DHT22;8517;53.546;10.104;2023-05-01T07:26:49;22.20;99.90
11221;DHT22;8517;53.546;10.104;2023-05-01T07:29:16;22.20;99.90
11221;DHT22;8517;53.546;10.104;2023-05-01T07:31:43;22.30;99.90
11221;DHT22;8517;53.546;10.104;2023-05-01T07:34:11;22.40;98.00
11221;DHT22;8517;53.546;10.104;2023-05-01T07:36:38;22.40;95.00
11221;DHT22;8517;53.546;10.104;2023-05-01T07:39:06;22.40;97.40
11221;DHT22;8517;53.546;10.104;2023-05-01T07:41:32;22.30;94.30
11221;DHT22;8517;53.546;10.104;2023-05-01T07:43:59;22.20;95.50
11221;DHT22;8517;53.546;10.104;2023-05-01T07:46:26;21.90;96.00
11221;DHT22;8517;53.546;10.104;2023-05-01T07:48:54;21.70;97.30
11221;DHT22;8517;53.546;10.104;2023-05-01T07:51:22;21.50;97.40
11221;DHT22;8517;53.546;10.104;2023-05-01T07:53:49;21.40;95.50
11221;DHT22;8517;53.546;10.104;2023-05-01T07:56:16;21.20;95.80
11221;DHT22;8517;53.546;10.104;2023-05-01T07:58:42;21.10;97.10
11221;DHT22;8517;53.546;10.104;2023-05-01T08:01:10;21.00;97.30
11221;DHT22;8517;53.546;10.104;2023-05-01T08:03:36;20.90;96.40
11221;DHT22;8517;53.546;10.104;2023-05-01T08:06:03;20.90;96.10
11221;DHT22;8517;53.546;10.104;2023-05-01T08:08:32;20.80;96.80
11221;DHT22;8517;53.546;10.104;2023-05-01T08:10:58;20.70;97.50
11221;DHT22;8517;53.546;10.104;2023-05-01T08:13:25;20.60;96.60
11221;DHT22;8517;53.546;10.104;2023-05-01T08:15:52;20.60;95.40
11221;DHT22;8517;53.546;10.104;2023-05-01T08:18:19;20.50;93.90
11221;DHT22;8517;53.546;10.104;2023-05-01T08:20:46;20.40;95.10
11221;DHT22;8517;53.546;10.104;2023-05-01T08:23:13;20.30;95.80
11221;DHT22;8517;53.546;10.104;2023-05-01T08:25:42;20.20;96.80
11221;DHT22;8517;53.546;10.104;2023-05-01T08:28:11;20.10;96.40
11221;DHT22;8517;53.546;10.104;2023-05-01T08:30:38;19.90;97.70
11221;DHT22;8517;53.546;10.104;2023-05-01T08:33:05;19.70;97.70
11221;DHT22;8517;53.546;10.104;2023-05-01T08:35:32;19.60;98.70
11221;DHT22;8517;53.546;10.104;2023-05-01T08:37:58;19.60;96.70
11221;DHT22;8517;53.546;10.104;2023-05-01T08:40:26;19.60;94.20
11221;DHT22;8517;53.546;10.104;2023-05-01T08:42:54;19.60;96.60
11221;DHT22;8517;53.546;10.104;2023-05-01T08:45:23;19.60;98.00
11221;DHT22;8517;53.546;10.104;2023-05-01T08:47:51;19.60;97.20
11221;DHT22;8517;53.546;10.104;2023-05-01T08:50:18;19.60;97.80
11221;DHT22;8517;53.546;10.104;2023-05-01T08:52:45;19.50;97.30
11221;DHT22;8517;53.546;10.104;2023-05-01T08:55:14;19.50;96.80
11221;DHT22;8517;53.546;10.104;2023-05-01T08:57:44;19.40;98.00
11221;DHT22;8517;53.546;10.104;2023-05-01T09:00:17;19.40;97.90
11221;DHT22;8517;53.546;10.104;2023-05-01T09:02:45;19.40;97.50
11221;DHT22;8517;53.546;10.104;2023-05-01T09:05:13;19.50;98.10
11221;DHT22;8517;53.546;10.104;2023-05-01T09:07:41;19.50;97.30
11221;DHT22;8517;53.546;10.104;2023-05-01T09:10:10;19.50;98.20
11221;DHT22;8517;53.546;10.104;2023-05-01T09:12:38;19.40;97.20
11221;DHT22;8517;53.546;10.104;2023-05-01T09:15:06;19.50;95.70
11221;DHT22;8517;53.546;10.104;2023-05-01T09:17:35;19.50;97.00
11221;DHT22;8517;53.546;10.104;2023-05-01T09:20:03;19.50;95.80
11221;DHT22;8517;53.546;10.104;2023-05-01T09:22:31;19.50;97.30
11221;DHT22;8517;53.546;10.104;2023-05-01T09:24:58;19.50;94.30
11221;DHT22;8517;53.546;10.104;2023-05-01T09:27:27;19.50;96.30
11221;DHT22;8517;53.546;10.104;2023-05-01T09:29:54;19.60;96.60
11221;DHT22;8517;53.546;10.104;2023-05-01T09:32:22;19.60;96.30
11221;DHT22;8517;53.546;10.104;2023-05-01T09:34:51;19.70;95.90
11221;DHT22;8517;53.546;10.104;2023-05-01T09:37:26;19.70;97.20
11221;DHT22;8517;53.546;10.104;2023-05-01T09:40:05;19.70;94.40
11221;DHT22;8517;53.546;10.104;2023-05-01T09:42:33;19.70;95.10
11221;DHT22;8517;53.546;10.104;2023-05-01T09:45:01;19.70;96.10
11221;DHT22;8517;53.546;10.104;2023-05-01T09:47:29;19.60;96.10
11221;DHT22;8517;53.546;10.104;2023-05-01T09:49:57;19.60;96.30
11221;DHT22;8517;53.546;10.104;2023-05-01T09:52:25;19.60;96.20
11221;DHT22;8517;53.546;10.104;2023-05-01T09:55:10;19.60;96.50
11221;DHT22;8517;53.546;10.104;2023-05-01T09:57:38;19.60;95.60
11221;DHT22;8517;53.546;10.104;2023-05-01T10:00:06;19.60;97.00
11221;DHT22;8517;53.546;10.104;2023-05-01T10:02:35;19.50;95.90
11221;DHT22;8517;53.546;10.104;2023-05-01T10:05:04;19.50;96.80
11221;DHT22;8517;53.546;10.104;2023-05-01T10:07:32;19.50;92.60
11221;DHT22;8517;53.546;10.104;2023-05-01T10:10:14;19.50;94.30
11221;DHT22;8517;53.546;10.104;2023-05-01T10:12:41;19.60;95.50
11221;DHT22;8517;53.546;10.104;2023-05-01T10:15:09;19.60;96.00
11221;DHT22;8517;53.546;10.104;2023-05-01T10:17:37;19.60;96.60
11221;DHT22;8517;53.546;10.104;2023-05-01T10:20:08;19.70;96.30
11221;DHT22;8517;53.546;10.104;2023-05-01T10:22:36;19.80;96.30
11221;DHT22;8517;53.546;10.104;2023-05-01T10:25:07;19.80;95.90
11221;DHT22;8517;53.546;10.104;2023-05-01T10:27:37;19.80;95.70
11221;DHT22;8517;53.546;10.104;2023-05-01T10:30:05;19.90;95.50
11221;DHT22;8517;53.546;10.104;2023-05-01T10:32:33;19.90;96.20
11221;DHT22;8517;53.546;10.104;2023-05-01T10:35:07;20.00;96.70
11221;DHT22;8517;53.546;10.104;2023-05-01T10:37:40;20.10;95.60
11221;DHT22;8517;53.546;10.104;2023-05-01T10:40:44;20.10;95.10
11221;DHT22;8517;53.546;10.104;2023-05-01T10:43:20;20.10;95.20
11221;DHT22;8517;53.546;10.104;2023-05-01T10:45:51;20.10;95.10
11221;DHT22;8517;53.546;10.104;2023-05-01T10:48:53;20.10;93.00
11221;DHT22;8517;53.546;10.104;2023-05-01T10:51:23;20.20;93.70
11221;DHT22;8517;53.546;10.104;2023-05-01T10:56:51;20.20;93.80
11221;DHT22;8517;53.546;10.104;2023-05-01T10:59:19;20.20;95.80
11221;DHT22;8517;53.546;10.104;2023-05-01T11:01:46;20.20;94.70
11221;DHT22;8517;53.546;10.104;2023-05-01T11:07:22;20.40;93.60
11221;DHT22;8517;53.546;10.104;2023-05-01T11:09:52;20.50;91.00
11221;DHT22;8517;53.546;10.104;2023-05-01T11:12:48;20.50;92.70
11221;DHT22;8517;53.546;10.104;2023-05-01T11:15:29;20.60;93.50
11221;DHT22;8517;53.546;10.104;2023-05-01T11:17:57;20.70;91.80
11221;DHT22;8517;53.546;10.104;2023-05-01T11:20:47;20.70;91.10
11221;DHT22;8517;53.546;10.104;2023-05-01T11:23:20;20.70;91.90
11221;DHT22;8517;53.546;10.104;2023-05-01T11:25:48;20.70;91.90
11221;DHT22;8517;53.546;10.104;2023-05-01T11:28:18;20.70;92.80
11221;DHT22;8517;53.546;10.104;2023-05-01T11:30:47;20.70;92.20
11221;DHT22;8517;53.546;10.104;2023-05-01T11:33:21;20.80;92.80
11221;DHT22;8517;53.546;10.104;2023-05-01T11:35:58;20.90;91.70
11221;DHT22;8517;53.546;10.104;2023-05-01T11:38:27;20.90;91.00
11221;DHT22;8517;53.546;10.104;2023-05-01T11:40:57;21.00;90.90
11221;DHT22;8517;53.546;10.104;2023-05-01T11:43:24;21.00;90.90
11221;DHT22;8517;53.546;10.104;2023-05-01T11:45:52;21.00;91.30
11221;DHT22;8517;53.546;10.104;2023-05-01T11:48:20;21.00;89.70
11221;DHT22;8517;53.546;10.104;2023-05-01T11:50:48;21.10;90.70
11221;DHT22;8517;53.546;10.104;2023-05-01T11:53:15;21.10;83.50
11221;DHT22;8517;53.546;10.104;2023-05-01T11:55:47;21.10;86.60
11221;DHT22;8517;53.546;10.104;2023-05-01T11:58:14;21.10;89.70
11221;DHT22;8517;53.546;10.104;2023-05-01T12:00:42;21.20;86.60
11221;DHT22;8517;53.546;10.104;2023-05-01T12:03:41;21.20;83.60
11221;DHT22;8517;53.546;10.104;2023-05-01T12:06:35;21.20;83.50
11221;DHT22;8517;53.546;10.104;2023-05-01T12:09:06;21.20;84.00
11221;DHT22;8517;53.546;10.104;2023-05-01T12:11:35;21.20;81.50
11221;DHT22;8517;53.546;10.104;2023-05-01T12:14:02;21.20;84.10
11221;DHT22;8517;53.546;10.104;2023-05-01T12:16:32;21.20;83.80
11221;DHT22;8517;53.546;10.104;2023-05-01T12:18:59;21.20;84.00
11221;DHT22;8517;53.546;10.104;2023-05-01T12:21:27;21.20;83.50
11221;DHT22;8517;53.546;10.104;2023-05-01T12:23:56;21.20;84.70
11221;DHT22;8517;53.546;10.104;2023-05-01T12:26:24;21.20;86.40
11221;DHT22;8517;53.546;10.104;2023-05-01T12:28:57;21.20;85.90
11221;DHT22;8517;53.546;10.104;2023-05-01T12:31:25;21.20;84.50
11221;DHT22;8517;53.546;10.104;2023-05-01T12:33:53;21.30;85.80
11221;DHT22;8517;53.546;10.104;2023-05-01T12:36:21;21.40;83.90
11221;DHT22;8517;53.546;10.104;2023-05-01T12:39:01;21.40;86.50
11221;DHT22;8517;53.546;10.104;2023-05-01T12:41:36;21.50;84.30
11221;DHT22;8517;53.546;10.104;2023-05-01T12:44:18;21.60;84.50
11221;DHT22;8517;53.546;10.104;2023-05-01T12:46:52;21.60;86.40
11221;DHT22;8517;53.546;10.104;2023-05-01T12:49:20;21.70;86.60
11221;DHT22;8517;53.546;10.104;2023-05-01T12:51:48;21.70;87.70
11221;DHT22;8517;53.546;10.104;2023-05-01T12:54:19;21.80;88.10
11221;DHT22;8517;53.546;10.104;2023-05-01T12:56:46;21.90;86.00
11221;DHT22;8517;53.546;10.104;2023-05-01T12:59:22;22.00;86.90
11221;DHT22;8517;53.546;10.104;2023-05-01T13:01:56;22.10;85.90
11221;DHT22;8517;53.546;10.104;2023-05-01T13:04:23;22.00;86.60
11221;DHT22;8517;53.546;10.104;2023-05-01T13:06:51;22.00;87.80
11221;DHT22;8517;53.546;10.104;2023-05-01T13:09:20;22.00;88.10
11221;DHT22;8517;53.546;10.104;2023-05-01T13:11:58;22.00;84.70
11221;DHT22;8517;53.546;10.104;2023-05-01T13:14:28;22.10;86.00
11221;DHT22;8517;53.546;10.104;2023-05-01T13:16:56;22.00;86.30
11221;DHT22;8517;53.546;10.104;2023-05-01T13:19:26;22.00;84.30
11221;DHT22;8517;53.546;10.104;2023-05-01T13:21:55;22.00;83.90
11221;DHT22;8517;53.546;10.104;2023-05-01T13:24:23;22.00;85.00
11221;DHT22;8517;53.546;10.104;2023-05-01T13:26:57;21.90;86.20
11221;DHT22;8517;53.546;10.104;2023-05-01T13:29:25;21.90;86.50
11221;DHT22;8517;53.546;10.104;2023-05-01T13:31:54;22.00;89.30
11221;DHT22;8517;53.546;10.104;2023-05-01T13:34:24;22.00;88.90
11221;DHT22;8517;53.546;10.104;2023-05-01T13:36:53;22.10;88.80
11221;DHT22;8517;53.546;10.104;2023-05-01T13:39:20;22.20;86.00
11221;DHT22;8517;53.546;10.104;2023-05-01T13:41:48;22.20;87.90
11221;DHT22;8517;53.546;10.104;2023-05-01T13:44:16;22.30;86.90
11221;DHT22;8517;53.546;10.104;2023-05-01T13:46:43;22.30;87.10
11221;DHT22;8517;53.546;10.104;2023-05-01T13:49:12;22.30;85.30
11221;DHT22;8517;53.546;10.104;2023-05-01T13:54:52;22.30;85.60
11221;DHT22;8517;53.546;10.104;2023-05-01T13:57:21;22.30;84.30
11221;DHT22;8517;53.546;10.104;2023-05-01T13:59:59;22.20;85.30
11221;DHT22;8517;53.546;10.104;2023-05-01T14:02:27;22.20;83.00
11221;DHT22;8517;53.546;10.104;2023-05-01T14:04:56;22.20;86.40
11221;DHT22;8517;53.546;10.104;2023-05-01T14:07:31;22.10;85.90
11221;DHT22;8517;53.546;10.104;2023-05-01T14:09:58;22.20;87.00
11221;DHT22;8517;53.546;10.104;2023-05-01T14:12:28;22.20;88.30
11221;DHT22;8517;53.546;10.104;2023-05-01T14:14:55;22.30;87.20
11221;DHT22;8517;53.546;10.104;2023-05-01T14:17:25;22.30;87.70
11221;DHT22;8517;53.546;10.104;2023-05-01T14:19:56;22.40;87.50
11221;DHT22;8517;53.546;10.104;2023-05-01T14:22:25;22.40;87.90
11221;DHT22;8517;53.546;10.104;2023-05-01T14:24:54;22.50;88.20
11221;DHT22;8517;53.546;10.104;2023-05-01T14:27:21;22.60;87.10
11221;DHT22;8517;53.546;10.104;2023-05-01T14:29:48;22.60;87.60
11221;DHT22;8517;53.546;10.104;2023-05-01T14:32:15;22.80;88.50
11221;DHT22;8517;53.546;10.104;2023-05-01T14:34:42;22.80;89.50
11221;DHT22;8517;53.546;10.104;2023-05-01T14:37:11;22.90;89.30
11221;DHT22;8517;53.546;10.104;2023-05-01T14:39:39;22.90;88.20
11221;DHT22;8517;53.546;10.104;2023-05-01T14:42:06;23.00;88.30
11221;DHT22;8517;53.546;10.104;2023-05-01T14:44:38;23.00;88.40
11221;DHT22;8517;53.546;10.104;2023-05-01T14:47:08;23.00;86.50
11221;DHT22;8517;53.546;10.104;2023-05-01T14:49:35;23.10;87.70
11221;DHT22;8517;53.546;10.104;2023-05-01T14:52:02;23.10;89.00
11221;DHT22;8517;53.546;10.104;2023-05-01T14:54:34;23.10;87.10
11221;DHT22;8517;53.546;10.104;2023-05-01T14:57:11;23.10;87.50
11221;DHT22;8517;53.546;10.104;2023-05-01T14:59:41;23.10;88.50
11221;DHT22;8517;53.546;10.104;2023-05-01T15:02:08;23.10;86.70
11221;DHT22;8517;53.546;10.104;2023-05-01T15:04:35;23.00;87.50
11221;DHT22;8517;53.546;10.104;2023-05-01T15:07:02;23.00;87.70
11221;DHT22;8517;53.546;10.104;2023-05-01T15:09:28;22.90;86.50
11221;DHT22;8517;53.546;10.104;2023-05-01T15:11:56;22.90;86.90
11221;DHT22;8517;53.546;10.104;2023-05-01T15:14:23;22.80;88.60
11221;DHT22;8517;53.546;10.104;2023-05-01T15:16:54;22.80;90.10
11221;DHT22;8517;53.546;10.104;2023-05-01T15:19:21;22.80;90.00
11221;DHT22;8517;53.546;10.104;2023-05-01T15:21:48;22.80;89.40
11221;DHT22;8517;53.546;10.104;2023-05-01T15:24:15;22.90;89.70
11221;DHT22;8517;53.546;10.104;2023-05-01T15:26:43;22.90;90.00
11221;DHT22;8517;53.546;10.104;2023-05-01T15:29:12;22.80;89.70
11221;DHT22;8517;53.546;10.104;2023-05-01T15:31:39;22.90;89.10
11221;DHT22;8517;53.546;10.104;2023-05-01T15:34:05;22.80;90.00
11221;DHT22;8517;53.546;10.104;2023-05-01T15:36:32;22.80;89.40
11221;DHT22;8517;53.546;10.104;2023-05-01T15:38:59;22.80;90.00
11221;DHT22;8517;53.546;10.104;2023-05-01T15:41:26;22.80;90.00
11221;DHT22;8517;53.546;10.104;2023-05-01T15:43:53;22.70;90.10
11221;DHT22;8517;53.546;10.104;2023-05-01T15:46:21;22.60;90.10
11221;DHT22;8517;53.546;10.104;2023-05-01T15:48:49;22.60;89.50
11221;DHT22;8517;53.546;10.104;2023-05-01T15:51:16;22.50;89.80
11221;DHT22;8517;53.546;10.104;2023-05-01T15:53:44;22.40;90.10
11221;DHT22;8517;53.546;10.104;2023-05-01T15:56:11;22.40;90.10
11221;DHT22;8517;53.546;10.104;2023-05-01T15:58:37;22.30;90.00
11221;DHT22;8517;53.546;10.104;2023-05-01T16:01:04;22.20;90.20